Durango, Colorado
Current Conditions -  °F | °C
As of 1:53 PM on Friday 21 Nov 2014 (Local Time) from KDRO Reporting Station
Clear Clear  
Wind Chill: 49°   Ceiling: Unl
Heat Index: 49°   Visibility: 10mi
Dew Point: 17°   Wind: 3mph
Humidity: 28%   Direction: NA
Pressure: 30.02"   Gusts: NA
Location:  37.27°N, 107.87°W
Report Text: KDRO 212053Z AUTO VRB03KT 10SM CLR 09/M08 A3002 RMK AO2 SLP174 T00941083 56019
Loading
Personal Weather Stations






























Interactive Weather Map New forecast layout! Learn more

10-Day Weather Forecast

Advertisements
Track Severe Weather on mobile